createdAt,value
2023-03-25T00:01:46.990Z,58.49
2023-03-25T00:04:16.333Z,58.54
2023-03-25T00:06:44.254Z,58.60
2023-03-25T00:09:12.606Z,58.69
2023-03-25T00:11:40.227Z,58.72
2023-03-25T00:14:08.268Z,58.78
2023-03-25T00:16:36.424Z,58.86
2023-03-25T00:19:04.398Z,58.94
2023-03-25T00:21:33.019Z,58.91
2023-03-25T00:24:01.615Z,59.02
2023-03-25T00:26:31.720Z,59.10
2023-03-25T00:28:59.200Z,59.16
2023-03-25T00:31:26.948Z,59.26
2023-03-25T00:33:54.517Z,59.27
2023-03-25T00:36:22.225Z,59.32
2023-03-25T00:38:50.664Z,59.38
2023-03-25T00:41:27.697Z,59.34
2023-03-25T00:43:58.640Z,59.34
2023-03-25T00:46:30.133Z,59.27
2023-03-25T00:48:59.630Z,59.27
2023-03-25T00:51:30.699Z,59.28
2023-03-25T00:53:59.945Z,59.27
2023-03-25T00:56:30.794Z,59.19
2023-03-25T00:58:58.551Z,59.20
2023-03-25T01:01:28.093Z,59.18
2023-03-25T01:03:58.071Z,59.29
2023-03-25T01:06:34.205Z,59.30
2023-03-25T01:09:06.300Z,59.37
2023-03-25T01:11:37.270Z,59.37
2023-03-25T01:14:10.727Z,59.35
2023-03-25T01:16:40.323Z,59.40
2023-03-25T01:19:07.916Z,59.61
2023-03-25T01:21:36.300Z,59.33
2023-03-25T01:24:06.014Z,59.47
2023-03-25T01:26:34.015Z,59.51
2023-03-25T01:29:01.532Z,59.52
2023-03-25T01:31:31.423Z,59.54
2023-03-25T01:34:00.231Z,59.55
2023-03-25T01:36:31.814Z,59.60
2023-03-25T01:39:00.843Z,59.63
2023-03-25T01:41:42.320Z,59.65
2023-03-25T01:44:23.673Z,59.70
2023-03-25T01:46:52.668Z,59.73
2023-03-25T01:49:29.518Z,59.78
2023-03-25T01:52:08.120Z,59.84
2023-03-25T01:54:38.145Z,59.96
2023-03-25T01:57:08.580Z,60.20
2023-03-25T01:59:38.139Z,60.34
2023-03-25T02:02:09.143Z,60.62
2023-03-25T02:04:44.904Z,60.83
2023-03-25T02:07:17.260Z,60.89
2023-03-25T02:09:52.149Z,60.84
2023-03-25T02:12:32.245Z,60.82
2023-03-25T02:15:08.123Z,60.63
2023-03-25T02:17:56.420Z,60.52
2023-03-25T02:20:46.811Z,60.18
2023-03-25T02:23:44.022Z,60.02
2023-03-25T02:26:36.997Z,59.89
2023-03-25T02:29:10.429Z,59.81
2023-03-25T02:31:52.193Z,59.74
2023-03-25T02:34:49.750Z,59.69
2023-03-25T02:37:26.124Z,59.66
2023-03-25T02:40:07.472Z,59.63
2023-03-25T02:42:40.173Z,59.59
2023-03-25T02:45:31.790Z,59.60
2023-03-25T02:48:10.865Z,59.66
2023-03-25T02:50:46.535Z,59.69
2023-03-25T02:53:25.648Z,59.69
2023-03-25T02:55:58.863Z,59.78
2023-03-25T02:58:29.383Z,59.84
2023-03-25T03:00:58.564Z,59.97
2023-03-25T03:03:29.911Z,59.91
2023-03-25T03:06:04.587Z,60.04
2023-03-25T03:08:56.631Z,60.10
2023-03-25T03:11:54.357Z,60.18
2023-03-25T03:14:46.261Z,60.21
2023-03-25T03:17:26.266Z,60.31
2023-03-25T03:20:01.244Z,60.32
2023-03-25T03:22:47.236Z,60.28
2023-03-25T03:25:44.528Z,60.27
2023-03-25T03:28:33.621Z,60.25
2023-03-25T03:31:56.588Z,60.33
2023-03-25T03:34:04.780Z,60.29
2023-03-25T03:36:38.593Z,60.32
2023-03-25T03:39:16.491Z,60.38
2023-03-25T03:41:48.483Z,60.49
2023-03-25T03:44:20.751Z,60.60
2023-03-25T03:46:54.236Z,60.65
2023-03-25T03:49:29.989Z,60.67
2023-03-25T03:52:17.811Z,60.71
2023-03-25T03:54:50.443Z,60.73
2023-03-25T03:57:26.504Z,60.78
2023-03-25T04:00:16.684Z,60.92
2023-03-25T04:02:58.959Z,60.84
2023-03-25T04:05:32.017Z,60.87
2023-03-25T04:08:17.500Z,60.96
2023-03-25T04:10:59.603Z,60.95
2023-03-25T04:13:35.146Z,61.01
2023-03-25T04:16:04.166Z,61.13
2023-03-25T04:18:33.496Z,61.18
2023-03-25T04:21:02.149Z,61.26
2023-03-25T04:23:29.724Z,61.32
2023-03-25T04:25:59.688Z,61.37
2023-03-25T04:28:27.521Z,61.40
2023-03-25T04:30:56.431Z,61.44
2023-03-25T04:33:24.807Z,61.49
2023-03-25T04:35:53.510Z,61.58
2023-03-25T04:38:21.971Z,61.70
2023-03-25T04:40:50.107Z,61.79
2023-03-25T04:43:18.504Z,61.87
2023-03-25T04:45:51.714Z,61.84
2023-03-25T04:48:25.532Z,61.90
2023-03-25T04:50:55.176Z,61.94
2023-03-25T04:53:23.291Z,62.02
2023-03-25T04:55:51.099Z,61.87
2023-03-25T04:58:19.231Z,61.90
2023-03-25T05:00:50.653Z,61.97
2023-03-25T05:03:21.241Z,61.94
2023-03-25T05:05:49.166Z,61.95
2023-03-25T05:08:17.792Z,62.06
2023-03-25T05:10:45.522Z,62.09
2023-03-25T05:13:13.372Z,62.06
2023-03-25T05:15:41.408Z,62.16
2023-03-25T05:18:13.197Z,62.16
2023-03-25T05:20:44.549Z,62.17
2023-03-25T05:23:15.388Z,62.16
2023-03-25T05:25:45.549Z,61.99
2023-03-25T05:28:14.217Z,61.79
2023-03-25T05:30:45.488Z,61.62
2023-03-25T05:33:16.745Z,61.27
2023-03-25T05:35:45.271Z,61.05
2023-03-25T05:38:17.583Z,60.98
2023-03-25T05:40:48.818Z,60.98
2023-03-25T05:43:17.042Z,60.99
2023-03-25T05:45:46.496Z,60.95
2023-03-25T05:48:14.028Z,60.86
2023-03-25T05:50:42.250Z,60.83
2023-03-25T05:53:16.548Z,60.86
2023-03-25T05:55:44.287Z,60.88
2023-03-25T05:58:12.245Z,60.92
2023-03-25T06:00:39.840Z,60.90
2023-03-25T06:03:07.966Z,60.95
2023-03-25T06:05:41.808Z,60.93
2023-03-25T06:08:09.109Z,60.98
2023-03-25T06:10:36.894Z,61.26
2023-03-25T06:13:04.820Z,61.12
2023-03-25T06:15:37.239Z,61.11
2023-03-25T06:18:05.112Z,61.17
2023-03-25T06:20:33.042Z,61.24
2023-03-25T06:23:01.683Z,61.29
2023-03-25T06:25:30.874Z,61.41
2023-03-25T06:28:00.369Z,61.46
2023-03-25T06:30:28.160Z,61.51
2023-03-25T06:32:56.047Z,61.54
2023-03-25T06:35:23.688Z,61.60
2023-03-25T06:37:51.586Z,61.69
2023-03-25T06:40:23.816Z,61.85
2023-03-25T06:42:51.536Z,61.90
2023-03-25T06:45:21.078Z,61.92
2023-03-25T06:47:55.056Z,61.92
2023-03-25T06:50:22.829Z,61.99
2023-03-25T06:52:50.401Z,62.10
2023-03-25T06:55:17.981Z,62.27
2023-03-25T06:57:45.894Z,62.48
2023-03-25T07:00:14.168Z,62.57
2023-03-25T07:02:41.766Z,62.44
2023-03-25T07:05:10.273Z,62.32
2023-03-25T07:07:37.959Z,62.22
2023-03-25T07:10:07.052Z,62.25
2023-03-25T07:12:36.588Z,62.16
2023-03-25T07:15:05.362Z,61.72
2023-03-25T07:17:33.352Z,60.83
2023-03-25T07:20:01.086Z,57.53
2023-03-25T07:22:29.044Z,56.08
2023-03-25T07:24:58.214Z,57.59
2023-03-25T07:27:25.958Z,54.64
2023-03-25T07:29:58.046Z,54.19
2023-03-25T07:32:25.922Z,51.38
2023-03-25T07:34:53.735Z,52.64
2023-03-25T07:37:21.778Z,52.61
2023-03-25T07:39:49.650Z,52.65
2023-03-25T07:42:17.442Z,52.80
2023-03-25T07:45:06.983Z,53.16
2023-03-25T07:47:35.251Z,52.61
2023-03-25T07:50:03.842Z,53.88
2023-03-25T07:52:31.844Z,53.22
2023-03-25T07:55:00.509Z,53.38
2023-03-25T07:57:28.206Z,52.85
2023-03-25T07:59:56.187Z,52.46
2023-03-25T08:02:24.349Z,52.43
2023-03-25T08:04:53.922Z,52.39
2023-03-25T08:07:21.562Z,52.57
2023-03-25T08:09:49.216Z,52.31
2023-03-25T08:12:16.641Z,53.03
2023-03-25T08:14:45.942Z,51.81
2023-03-25T08:17:13.613Z,51.86
2023-03-25T08:19:41.300Z,52.33
2023-03-25T08:22:09.113Z,52.91
2023-03-25T08:24:36.990Z,52.03
2023-03-25T08:27:14.998Z,50.65
2023-03-25T08:29:34.680Z,51.77
2023-03-25T08:32:02.643Z,50.51
2023-03-25T08:34:32.242Z,51.16
2023-03-25T08:36:59.922Z,49.91
2023-03-25T08:39:29.331Z,49.76
2023-03-25T08:41:58.750Z,48.21
2023-03-25T08:44:26.532Z,48.44
2023-03-25T08:46:54.322Z,48.62
2023-03-25T08:49:22.211Z,48.13
2023-03-25T08:51:50.019Z,48.04
2023-03-25T08:54:17.766Z,47.83
2023-03-25T08:56:45.823Z,48.01
2023-03-25T08:59:13.528Z,48.36
2023-03-25T09:01:43.037Z,47.34
2023-03-25T09:04:11.796Z,48.43
2023-03-25T09:06:47.763Z,48.55
2023-03-25T09:09:13.017Z,47.97
2023-03-25T09:11:40.716Z,48.55
2023-03-25T09:14:08.480Z,47.70
2023-03-25T09:16:36.305Z,48.97
2023-03-25T09:19:06.086Z,47.78
2023-03-25T09:21:33.636Z,47.95
2023-03-25T09:24:01.452Z,48.06
2023-03-25T09:26:29.209Z,48.50
2023-03-25T09:28:56.871Z,47.66
2023-03-25T09:31:25.502Z,47.13
2023-03-25T09:33:52.999Z,47.33
2023-03-25T09:36:20.827Z,47.34
2023-03-25T09:38:48.586Z,48.38
2023-03-25T09:41:53.447Z,47.83
2023-03-25T09:44:32.357Z,48.46
2023-03-25T09:47:01.966Z,49.01
2023-03-25T09:49:38.261Z,49.51
2023-03-25T09:52:14.423Z,49.75
2023-03-25T09:54:50.552Z,49.71
2023-03-25T09:57:26.682Z,49.62
2023-03-25T09:59:56.370Z,50.66
2023-03-25T10:02:57.861Z,50.62
2023-03-25T10:05:52.516Z,50.15
2023-03-25T10:08:35.118Z,49.85
2023-03-25T10:11:20.599Z,50.21
2023-03-25T10:14:11.360Z,49.99
2023-03-25T10:16:53.446Z,50.33
2023-03-25T10:19:44.643Z,51.33
2023-03-25T10:22:29.521Z,52.75
2023-03-25T10:25:17.873Z,53.33
2023-03-25T10:27:49.388Z,55.28
2023-03-25T10:30:22.500Z,55.50
2023-03-25T10:32:57.158Z,56.23
2023-03-25T10:35:45.554Z,56.09
2023-03-25T10:38:22.896Z,56.79
2023-03-25T10:41:01.319Z,57.27
2023-03-25T10:43:39.540Z,58.29
2023-03-25T10:46:47.999Z,59.24
2023-03-25T10:49:21.032Z,60.97
2023-03-25T10:51:56.396Z,61.18
2023-03-25T10:54:29.243Z,61.35
2023-03-25T10:57:05.304Z,62.55
2023-03-25T10:59:53.992Z,63.77
2023-03-25T11:02:29.351Z,63.97
2023-03-25T11:05:06.093Z,64.61
2023-03-25T11:07:41.135Z,64.97
2023-03-25T11:10:19.910Z,65.47
2023-03-25T11:12:52.024Z,66.26
2023-03-25T11:15:35.469Z,66.92
2023-03-25T11:18:35.139Z,66.65
2023-03-25T11:21:17.531Z,66.68
2023-03-25T11:23:48.798Z,66.80
2023-03-25T11:26:23.798Z,68.12
2023-03-25T11:28:56.204Z,68.10
2023-03-25T11:31:27.005Z,68.31
2023-03-25T11:34:08.602Z,69.47
2023-03-25T11:36:55.476Z,69.03
2023-03-25T11:39:39.332Z,69.84
2023-03-25T11:42:28.396Z,69.95
2023-03-25T11:44:59.052Z,69.99
2023-03-25T11:47:36.433Z,70.70
2023-03-25T11:50:06.480Z,70.46
2023-03-25T11:52:44.638Z,70.76
2023-03-25T11:55:31.372Z,71.05
2023-03-25T11:58:01.644Z,70.90
2023-03-25T12:00:39.848Z,70.78
2023-03-25T12:03:20.736Z,70.70
2023-03-25T12:06:02.606Z,70.51
2023-03-25T12:08:47.669Z,70.57
2023-03-25T12:11:39.231Z,70.57
2023-03-25T12:14:50.773Z,70.08
2023-03-25T12:17:54.410Z,69.97
2023-03-25T12:20:42.939Z,69.59
2023-03-25T12:23:43.380Z,69.39
2023-03-25T12:26:49.860Z,69.82
2023-03-25T12:29:28.844Z,70.25
2023-03-25T12:32:13.838Z,70.09
2023-03-25T12:34:48.752Z,70.32
2023-03-25T12:37:41.418Z,71.04
2023-03-25T12:40:29.368Z,70.43
2023-03-25T12:43:28.107Z,71.23
2023-03-25T12:46:23.653Z,71.04
2023-03-25T12:49:15.440Z,71.00
2023-03-25T12:51:54.345Z,70.73
2023-03-25T12:55:02.353Z,71.13
2023-03-25T12:58:02.500Z,70.53
2023-03-25T13:00:47.522Z,70.50
2023-03-25T13:03:23.720Z,70.04
2023-03-25T13:06:05.690Z,69.95
2023-03-25T13:08:57.377Z,70.04
2023-03-25T13:11:33.596Z,70.04
2023-03-25T13:14:06.814Z,69.96
2023-03-25T13:16:37.961Z,70.29
2023-03-25T13:19:17.079Z,70.18
2023-03-25T13:21:53.140Z,70.03
2023-03-25T13:24:35.544Z,70.25
2023-03-25T13:27:05.688Z,70.08
2023-03-25T13:29:49.481Z,69.97
2023-03-25T13:32:42.819Z,70.27
2023-03-25T13:35:37.145Z,69.92
2023-03-25T13:38:19.621Z,69.85
2023-03-25T13:40:52.608Z,69.96
2023-03-25T13:43:32.912Z,70.05
2023-03-25T13:46:20.599Z,70.01
2023-03-25T13:49:02.238Z,69.97
2023-03-25T13:51:30.268Z,69.90
2023-03-25T13:54:18.306Z,69.71
2023-03-25T13:57:12.627Z,69.29
2023-03-25T14:00:14.152Z,68.98
2023-03-25T14:03:06.918Z,68.63
2023-03-25T14:06:09.327Z,68.14
2023-03-25T14:08:48.424Z,67.90
2023-03-25T14:11:27.691Z,67.40
2023-03-25T14:14:15.922Z,67.31
2023-03-25T14:16:48.826Z,67.10
2023-03-25T14:19:30.332Z,67.26
2023-03-25T14:21:58.661Z,67.31
2023-03-25T14:24:36.310Z,67.06
2023-03-25T14:27:28.982Z,66.76
2023-03-25T14:30:08.260Z,66.78
2023-03-25T14:32:39.581Z,66.63
2023-03-25T14:35:37.390Z,66.58
2023-03-25T14:38:13.621Z,66.25
2023-03-25T14:41:01.290Z,66.20
2023-03-25T14:43:35.285Z,65.96
2023-03-25T14:46:17.852Z,66.01
2023-03-25T14:48:53.977Z,66.61
2023-03-25T14:51:34.430Z,67.39
2023-03-25T14:54:20.600Z,67.49
2023-03-25T14:57:07.865Z,68.28
2023-03-25T14:59:43.243Z,69.29
2023-03-25T15:02:23.323Z,69.88
2023-03-25T15:05:05.981Z,71.93
2023-03-25T15:07:53.515Z,71.57
2023-03-25T15:10:29.772Z,72.23
2023-03-25T15:13:05.114Z,72.69
2023-03-25T15:15:51.689Z,73.73
2023-03-25T15:18:40.910Z,73.14
2023-03-25T15:21:12.869Z,73.55
2023-03-25T15:23:47.623Z,74.98
2023-03-25T15:26:34.805Z,74.79
2023-03-25T15:29:27.600Z,75.68
2023-03-25T15:32:20.484Z,74.75
2023-03-25T15:35:17.938Z,75.56
2023-03-25T15:38:02.995Z,74.68
2023-03-25T15:41:13.055Z,75.57
2023-03-25T15:44:02.896Z,74.96
2023-03-25T15:47:00.019Z,74.89
2023-03-25T15:50:08.912Z,74.83
2023-03-25T15:53:41.841Z,74.92
2023-03-25T15:56:10.196Z,74.72
2023-03-25T15:59:06.552Z,74.77
2023-03-25T16:01:38.138Z,74.46
2023-03-25T16:04:14.193Z,74.23
2023-03-25T16:06:49.089Z,74.19
2023-03-25T16:09:26.032Z,73.86
2023-03-25T16:12:02.292Z,73.75
2023-03-25T16:14:32.864Z,73.11
2023-03-25T16:17:03.874Z,72.07
2023-03-25T16:19:52.820Z,72.00
2023-03-25T16:22:27.856Z,71.71
2023-03-25T16:25:06.175Z,70.73
2023-03-25T16:27:40.207Z,69.71
2023-03-25T16:30:29.923Z,70.08
2023-03-25T16:33:13.282Z,68.95
2023-03-25T16:35:48.969Z,68.14
2023-03-25T16:38:21.199Z,68.36
2023-03-25T16:40:49.966Z,68.81
2023-03-25T16:43:26.749Z,69.19
2023-03-25T16:46:02.935Z,69.68
2023-03-25T16:48:40.449Z,69.57
2023-03-25T16:51:25.138Z,69.85
2023-03-25T16:53:55.661Z,70.17
2023-03-25T16:56:30.276Z,70.82
2023-03-25T16:59:29.280Z,71.03
2023-03-25T17:01:59.885Z,70.95
2023-03-25T17:04:38.761Z,71.15
2023-03-25T17:07:14.553Z,71.21
2023-03-25T17:09:44.276Z,71.35
2023-03-25T17:12:19.054Z,71.63
2023-03-25T17:14:49.741Z,71.37
2023-03-25T17:17:35.374Z,71.35
2023-03-25T17:20:17.478Z,71.47
2023-03-25T17:23:06.874Z,71.20
2023-03-25T17:25:53.323Z,71.02
2023-03-25T17:28:29.235Z,70.89
2023-03-25T17:30:57.508Z,70.69
2023-03-25T17:33:38.239Z,70.47
2023-03-25T17:36:11.995Z,70.53
2023-03-25T17:38:43.297Z,70.43
2023-03-25T17:41:12.130Z,70.56
2023-03-25T17:43:47.896Z,70.51
2023-03-25T17:46:22.662Z,70.44
2023-03-25T17:48:52.873Z,70.37
2023-03-25T17:51:21.502Z,70.25
2023-03-25T17:53:49.515Z,70.03
2023-03-25T17:56:26.890Z,70.01
2023-03-25T17:59:00.046Z,69.90
2023-03-25T18:01:30.094Z,69.66
2023-03-25T18:03:58.220Z,69.61
2023-03-25T18:06:26.006Z,69.56
2023-03-25T18:08:54.169Z,69.57
2023-03-25T18:11:21.927Z,69.53
2023-03-25T18:13:49.956Z,69.59
2023-03-25T18:16:21.218Z,69.72
2023-03-25T18:18:49.097Z,69.61
2023-03-25T18:21:18.940Z,69.72
2023-03-25T18:23:48.119Z,69.56
2023-03-25T18:26:18.834Z,69.49
2023-03-25T18:28:47.996Z,69.52
2023-03-25T18:31:17.482Z,69.54
2023-03-25T18:33:51.002Z,69.67
2023-03-25T18:36:18.693Z,69.83
2023-03-25T18:38:47.158Z,70.04
2023-03-25T18:41:16.786Z,70.13
2023-03-25T18:43:45.088Z,70.15
2023-03-25T18:46:14.641Z,70.14
2023-03-25T18:48:43.208Z,70.18
2023-03-25T18:51:13.116Z,70.02
2023-03-25T18:53:41.293Z,69.95
2023-03-25T18:56:09.689Z,69.88
2023-03-25T18:58:37.790Z,69.93
2023-03-25T19:01:11.586Z,69.73
2023-03-25T19:03:40.705Z,69.76
2023-03-25T19:06:11.901Z,69.63
2023-03-25T19:08:42.798Z,69.62
2023-03-25T19:11:20.039Z,69.72
2023-03-25T19:13:40.968Z,69.71
2023-03-25T19:16:09.519Z,69.71
2023-03-25T19:18:36.873Z,69.75
2023-03-25T19:21:05.564Z,69.80
2023-03-25T19:23:34.712Z,69.85
2023-03-25T19:26:02.825Z,69.86
2023-03-25T19:28:30.554Z,69.95
2023-03-25T19:31:00.992Z,69.94
2023-03-25T19:33:30.511Z,69.87
2023-03-25T19:36:00.632Z,69.86
2023-03-25T19:38:32.257Z,69.99
2023-03-25T19:41:08.364Z,70.21
2023-03-25T19:43:36.763Z,70.44
2023-03-25T19:46:06.401Z,70.74
2023-03-25T19:48:35.013Z,70.96
2023-03-25T19:51:03.893Z,71.16
2023-03-25T19:53:31.835Z,71.33
2023-03-25T19:56:04.894Z,71.64
2023-03-25T19:58:33.984Z,71.82
2023-03-25T20:01:01.791Z,72.01
2023-03-25T20:03:31.653Z,72.21
2023-03-25T20:06:01.770Z,72.65
2023-03-25T20:08:30.431Z,72.80
2023-03-25T20:10:58.577Z,72.74
2023-03-25T20:13:26.694Z,72.85
2023-03-25T20:15:55.079Z,72.87
2023-03-25T20:18:23.161Z,72.76
2023-03-25T20:20:50.932Z,72.61
2023-03-25T20:23:18.526Z,72.50
2023-03-25T20:25:46.951Z,72.40
2023-03-25T20:28:14.668Z,72.34
2023-03-25T20:30:42.270Z,72.30
2023-03-25T20:33:10.679Z,72.32
2023-03-25T20:35:38.370Z,72.37
2023-03-25T20:38:06.048Z,72.41
2023-03-25T20:40:43.954Z,72.49
2023-03-25T20:43:06.093Z,72.53
2023-03-25T20:45:34.098Z,72.63
2023-03-25T20:48:03.278Z,72.76
2023-03-25T20:50:31.886Z,73.10
2023-03-25T20:52:59.648Z,72.97
2023-03-25T20:55:27.342Z,73.02
2023-03-25T20:57:55.188Z,73.18
2023-03-25T21:00:22.872Z,73.43
2023-03-25T21:02:51.830Z,73.44
2023-03-25T21:05:19.437Z,73.54
2023-03-25T21:07:47.828Z,73.68
2023-03-25T21:10:16.417Z,73.69
2023-03-25T21:12:45.033Z,74.05
2023-03-25T21:15:15.312Z,73.96
2023-03-25T21:17:43.735Z,74.23
2023-03-25T21:20:12.482Z,74.37
2023-03-25T21:22:44.630Z,74.47
2023-03-25T21:25:14.236Z,74.88
2023-03-25T21:27:44.405Z,75.23
2023-03-25T21:30:13.469Z,75.37
2023-03-25T21:32:41.456Z,75.62
2023-03-25T21:35:09.996Z,75.71
2023-03-25T21:37:38.261Z,76.00
2023-03-25T21:40:09.771Z,76.06
2023-03-25T21:42:38.087Z,76.00
2023-03-25T21:45:08.339Z,76.05
2023-03-25T21:47:36.561Z,76.20
2023-03-25T21:50:08.752Z,76.17
2023-03-25T21:52:37.876Z,76.32
2023-03-25T21:55:07.506Z,76.37
2023-03-25T21:57:37.106Z,76.62
2023-03-25T22:00:09.147Z,76.75
2023-03-25T22:02:45.146Z,76.82
2023-03-25T22:05:15.667Z,77.02
2023-03-25T22:07:44.199Z,77.03
2023-03-25T22:10:12.106Z,76.96
2023-03-25T22:12:40.051Z,77.12
2023-03-25T22:15:09.568Z,77.30
2023-03-25T22:17:37.087Z,77.53
2023-03-25T22:20:06.473Z,77.57
2023-03-25T22:22:35.966Z,77.79
2023-03-25T22:25:04.416Z,77.89
2023-03-25T22:27:32.008Z,77.95
2023-03-25T22:30:00.720Z,78.07
2023-03-25T22:32:28.548Z,78.24
2023-03-25T22:34:56.103Z,78.29
2023-03-25T22:37:24.154Z,78.35
2023-03-25T22:39:51.755Z,78.43
2023-03-25T22:42:19.848Z,78.44
2023-03-25T22:44:47.843Z,78.40
2023-03-25T22:47:15.625Z,78.42
2023-03-25T22:49:43.346Z,78.19
2023-03-25T22:52:11.937Z,78.23
2023-03-25T22:54:39.677Z,78.21
2023-03-25T22:57:07.325Z,78.12
2023-03-25T22:59:35.019Z,78.34
2023-03-25T23:02:02.729Z,78.48
2023-03-25T23:04:30.343Z,78.58
2023-03-25T23:07:07.236Z,78.56
2023-03-25T23:09:44.555Z,78.39
2023-03-25T23:12:16.394Z,78.37
2023-03-25T23:14:51.754Z,78.26
2023-03-25T23:17:20.498Z,78.35
2023-03-25T23:19:48.736Z,78.47
2023-03-25T23:22:16.705Z,78.57
2023-03-25T23:24:45.256Z,78.56
2023-03-25T23:27:13.447Z,78.64
2023-03-25T23:29:41.286Z,78.78
2023-03-25T23:32:10.403Z,78.87
2023-03-25T23:34:39.577Z,78.96
2023-03-25T23:37:08.615Z,78.99
2023-03-25T23:39:39.061Z,79.00
2023-03-25T23:42:06.760Z,79.06
2023-03-25T23:44:35.750Z,79.06
2023-03-25T23:47:03.922Z,78.98
2023-03-25T23:49:32.766Z,78.98
2023-03-25T23:52:00.582Z,79.02
2023-03-25T23:54:28.864Z,78.97
2023-03-25T23:56:57.521Z,78.88
2023-03-25T23:59:25.242Z,78.76
